sensor_id;sensor_type;location;lat;lon;timestamp;P1;P2;P0
56688;PMS5003;42565;53.342;-1.534;2024-02-21T00:02:21;7;7;
56688;PMS5003;42565;53.342;-1.534;2024-02-21T00:04:48;10;10;
56688;PMS5003;42565;53.342;-1.534;2024-02-21T00:07:15;10;9;
56688;PMS5003;42565;53.342;-1.534;2024-02-21T00:09:42;8;7;
56688;PMS5003;42565;53.342;-1.534;2024-02-21T00:12:09;11;9;
56688;PMS5003;42565;53.342;-1.534;2024-02-21T00:14:36;9;8;
56688;PMS5003;42565;53.342;-1.534;2024-02-21T00:17:02;8;6;
56688;PMS5003;42565;53.342;-1.534;2024-02-21T00:19:29;7;7;
56688;PMS5003;42565;53.342;-1.534;2024-02-21T00:21:57;8;7;
56688;PMS5003;42565;53.342;-1.534;2024-02-21T00:24:23;6;6;
56688;PMS5003;42565;53.342;-1.534;2024-02-21T00:26:50;10;9;
56688;PMS5003;42565;53.342;-1.534;2024-02-21T00:29:17;8;7;
56688;PMS5003;42565;53.342;-1.534;2024-02-21T00:31:43;8;6;
56688;PMS5003;42565;53.342;-1.534;2024-02-21T00:34:10;10;8;
56688;PMS5003;42565;53.342;-1.534;2024-02-21T00:36:37;9;9;
56688;PMS5003;42565;53.342;-1.534;2024-02-21T00:39:04;9;9;
56688;PMS5003;42565;53.342;-1.534;2024-02-21T00:41:31;8;8;
56688;PMS5003;42565;53.342;-1.534;2024-02-21T00:43:58;8;7;
56688;PMS5003;42565;53.342;-1.534;2024-02-21T00:46:26;7;6;
56688;PMS5003;42565;53.342;-1.534;2024-02-21T00:48:52;9;8;
56688;PMS5003;42565;53.342;-1.534;2024-02-21T00:51:19;10;10;
56688;PMS5003;42565;53.342;-1.534;2024-02-21T00:53:46;11;9;
56688;PMS5003;42565;53.342;-1.534;2024-02-21T00:56:13;10;10;
56688;PMS5003;42565;53.342;-1.534;2024-02-21T00:58:40;12;12;
56688;PMS5003;42565;53.342;-1.534;2024-02-21T01:01:07;11;9;
56688;PMS5003;42565;53.342;-1.534;2024-02-21T01:03:34;8;8;
56688;PMS5003;42565;53.342;-1.534;2024-02-21T01:06:01;10;9;
56688;PMS5003;42565;53.342;-1.534;2024-02-21T01:08:27;10;9;
56688;PMS5003;42565;53.342;-1.534;2024-02-21T01:10:54;9;9;
56688;PMS5003;42565;53.342;-1.534;2024-02-21T01:13:21;10;10;
56688;PMS5003;42565;53.342;-1.534;2024-02-21T01:15:48;8;8;
56688;PMS5003;42565;53.342;-1.534;2024-02-21T01:18:15;9;9;
56688;PMS5003;42565;53.342;-1.534;2024-02-21T01:20:41;8;7;
56688;PMS5003;42565;53.342;-1.534;2024-02-21T01:23:08;8;7;
56688;PMS5003;42565;53.342;-1.534;2024-02-21T01:25:35;9;8;
56688;PMS5003;42565;53.342;-1.534;2024-02-21T01:28:03;8;8;
56688;PMS5003;42565;53.342;-1.534;2024-02-21T01:30:30;6;5;
56688;PMS5003;42565;53.342;-1.534;2024-02-21T01:32:58;5;5;
56688;PMS5003;42565;53.342;-1.534;2024-02-21T01:35:24;6;5;
56688;PMS5003;42565;53.342;-1.534;2024-02-21T01:37:52;6;6;
56688;PMS5003;42565;53.342;-1.534;2024-02-21T01:40:19;7;7;
56688;PMS5003;42565;53.342;-1.534;2024-02-21T01:42:46;6;6;
56688;PMS5003;42565;53.342;-1.534;2024-02-21T01:45:14;7;6;
56688;PMS5003;42565;53.342;-1.534;2024-02-21T01:47:41;8;7;
56688;PMS5003;42565;53.342;-1.534;2024-02-21T01:50:09;7;7;
56688;PMS5003;42565;53.342;-1.534;2024-02-21T01:52:38;9;8;
56688;PMS5003;42565;53.342;-1.534;2024-02-21T01:55:06;6;6;
56688;PMS5003;42565;53.342;-1.534;2024-02-21T01:57:36;8;8;
56688;PMS5003;42565;53.342;-1.534;2024-02-21T02:00:04;9;8;
56688;PMS5003;42565;53.342;-1.534;2024-02-21T02:02:32;9;9;
56688;PMS5003;42565;53.342;-1.534;2024-02-21T02:04:59;8;8;
56688;PMS5003;42565;53.342;-1.534;2024-02-21T02:07:27;11;10;
56688;PMS5003;42565;53.342;-1.534;2024-02-21T02:09:54;8;8;
56688;PMS5003;42565;53.342;-1.534;2024-02-21T02:12:22;16;13;
56688;PMS5003;42565;53.342;-1.534;2024-02-21T02:14:57;15;13;
56688;PMS5003;42565;53.342;-1.534;2024-02-21T02:17:24;11;9;
56688;PMS5003;42565;53.342;-1.534;2024-02-21T02:19:51;12;12;
56688;PMS5003;42565;53.342;-1.534;2024-02-21T02:22:19;14;14;
56688;PMS5003;42565;53.342;-1.534;2024-02-21T02:24:54;9;9;
56688;PMS5003;42565;53.342;-1.534;2024-02-21T02:27:22;13;11;
56688;PMS5003;42565;53.342;-1.534;2024-02-21T02:29:49;14;13;
56688;PMS5003;42565;53.342;-1.534;2024-02-21T02:32:16;12;12;
56688;PMS5003;42565;53.342;-1.534;2024-02-21T02:34:43;14;12;
56688;PMS5003;42565;53.342;-1.534;2024-02-21T02:37:10;14;13;
56688;PMS5003;42565;53.342;-1.534;2024-02-21T02:39:37;15;14;
56688;PMS5003;42565;53.342;-1.534;2024-02-21T02:42:04;12;11;
56688;PMS5003;42565;53.342;-1.534;2024-02-21T02:44:32;14;13;
56688;PMS5003;42565;53.342;-1.534;2024-02-21T02:46:59;12;11;
56688;PMS5003;42565;53.342;-1.534;2024-02-21T02:49:26;12;12;
56688;PMS5003;42565;53.342;-1.534;2024-02-21T02:51:53;11;10;
56688;PMS5003;42565;53.342;-1.534;2024-02-21T02:54:19;11;10;
56688;PMS5003;42565;53.342;-1.534;2024-02-21T02:56:46;12;12;
56688;PMS5003;42565;53.342;-1.534;2024-02-21T02:59:13;10;10;
56688;PMS5003;42565;53.342;-1.534;2024-02-21T03:01:41;13;13;
56688;PMS5003;42565;53.342;-1.534;2024-02-21T03:04:08;13;11;
56688;PMS5003;42565;53.342;-1.534;2024-02-21T03:06:35;13;13;
56688;PMS5003;42565;53.342;-1.534;2024-02-21T03:09:02;14;13;
56688;PMS5003;42565;53.342;-1.534;2024-02-21T03:11:29;17;17;
56688;PMS5003;42565;53.342;-1.534;2024-02-21T03:13:57;16;14;
56688;PMS5003;42565;53.342;-1.534;2024-02-21T03:16:24;13;12;
56688;PMS5003;42565;53.342;-1.534;2024-02-21T03:18:51;14;14;
56688;PMS5003;42565;53.342;-1.534;2024-02-21T03:21:18;13;13;
56688;PMS5003;42565;53.342;-1.534;2024-02-21T03:23:44;14;13;
56688;PMS5003;42565;53.342;-1.534;2024-02-21T03:26:12;14;14;
56688;PMS5003;42565;53.342;-1.534;2024-02-21T03:28:38;14;13;
56688;PMS5003;42565;53.342;-1.534;2024-02-21T03:31:05;12;12;
56688;PMS5003;42565;53.342;-1.534;2024-02-21T03:33:33;13;12;
56688;PMS5003;42565;53.342;-1.534;2024-02-21T03:36:00;10;10;
56688;PMS5003;42565;53.342;-1.534;2024-02-21T03:38:27;14;14;
56688;PMS5003;42565;53.342;-1.534;2024-02-21T03:40:53;14;13;
56688;PMS5003;42565;53.342;-1.534;2024-02-21T03:43:20;14;13;
56688;PMS5003;42565;53.342;-1.534;2024-02-21T03:45:47;12;11;
56688;PMS5003;42565;53.342;-1.534;2024-02-21T03:48:14;11;9;
56688;PMS5003;42565;53.342;-1.534;2024-02-21T03:50:41;11;11;
56688;PMS5003;42565;53.342;-1.534;2024-02-21T03:53:08;11;11;
56688;PMS5003;42565;53.342;-1.534;2024-02-21T03:55:34;12;10;
56688;PMS5003;42565;53.342;-1.534;2024-02-21T03:58:01;11;11;
56688;PMS5003;42565;53.342;-1.534;2024-02-21T04:00:28;10;9;
56688;PMS5003;42565;53.342;-1.534;2024-02-21T04:02:55;9;8;
56688;PMS5003;42565;53.342;-1.534;2024-02-21T04:05:21;10;8;
56688;PMS5003;42565;53.342;-1.534;2024-02-21T04:07:49;11;10;
56688;PMS5003;42565;53.342;-1.534;2024-02-21T04:10:16;10;10;
56688;PMS5003;42565;53.342;-1.534;2024-02-21T04:12:43;9;9;
56688;PMS5003;42565;53.342;-1.534;2024-02-21T04:15:10;11;10;
56688;PMS5003;42565;53.342;-1.534;2024-02-21T04:17:38;10;10;
56688;PMS5003;42565;53.342;-1.534;2024-02-21T04:20:05;7;7;
56688;PMS5003;42565;53.342;-1.534;2024-02-21T04:22:39;8;8;
56688;PMS5003;42565;53.342;-1.534;2024-02-21T04:25:06;8;6;
56688;PMS5003;42565;53.342;-1.534;2024-02-21T04:27:34;9;9;
56688;PMS5003;42565;53.342;-1.534;2024-02-21T04:30:01;8;7;
56688;PMS5003;42565;53.342;-1.534;2024-02-21T04:32:29;6;5;
56688;PMS5003;42565;53.342;-1.534;2024-02-21T04:34:56;7;6;
56688;PMS5003;42565;53.342;-1.534;2024-02-21T04:37:23;4;4;
56688;PMS5003;42565;53.342;-1.534;2024-02-21T04:39:50;5;5;
56688;PMS5003;42565;53.342;-1.534;2024-02-21T04:42:17;5;5;
56688;PMS5003;42565;53.342;-1.534;2024-02-21T04:44:45;6;6;
56688;PMS5003;42565;53.342;-1.534;2024-02-21T04:47:12;4;3;
56688;PMS5003;42565;53.342;-1.534;2024-02-21T04:49:38;4;3;
56688;PMS5003;42565;53.342;-1.534;2024-02-21T04:52:06;4;4;
56688;PMS5003;42565;53.342;-1.534;2024-02-21T04:54:34;2;2;
56688;PMS5003;42565;53.342;-1.534;2024-02-21T04:57:00;2;2;
56688;PMS5003;42565;53.342;-1.534;2024-02-21T04:59:28;3;3;
56688;PMS5003;42565;53.342;-1.534;2024-02-21T05:01:56;2;2;
56688;PMS5003;42565;53.342;-1.534;2024-02-21T05:04:23;1;1;
56688;PMS5003;42565;53.342;-1.534;2024-02-21T05:06:50;1;1;
56688;PMS5003;42565;53.342;-1.534;2024-02-21T05:09:16;1;1;
56688;PMS5003;42565;53.342;-1.534;2024-02-21T05:11:43;1;1;
56688;PMS5003;42565;53.342;-1.534;2024-02-21T05:14:10;1;1;
56688;PMS5003;42565;53.342;-1.534;2024-02-21T05:16:38;1;1;
56688;PMS5003;42565;53.342;-1.534;2024-02-21T05:19:05;1;1;
56688;PMS5003;42565;53.342;-1.534;2024-02-21T05:21:32;1;1;
56688;PMS5003;42565;53.342;-1.534;2024-02-21T05:23:59;2;2;
56688;PMS5003;42565;53.342;-1.534;2024-02-21T05:26:26;1;1;
56688;PMS5003;42565;53.342;-1.534;2024-02-21T05:28:54;2;2;
56688;PMS5003;42565;53.342;-1.534;2024-02-21T05:31:20;2;2;
56688;PMS5003;42565;53.342;-1.534;2024-02-21T05:33:47;1;1;
56688;PMS5003;42565;53.342;-1.534;2024-02-21T05:36:14;1;1;
56688;PMS5003;42565;53.342;-1.534;2024-02-21T05:38:41;1;1;
56688;PMS5003;42565;53.342;-1.534;2024-02-21T05:41:07;1;1;
56688;PMS5003;42565;53.342;-1.534;2024-02-21T05:43:34;0;0;
56688;PMS5003;42565;53.342;-1.534;2024-02-21T05:46:01;0;0;
56688;PMS5003;42565;53.342;-1.534;2024-02-21T05:48:28;0;0;
56688;PMS5003;42565;53.342;-1.534;2024-02-21T05:50:55;0;0;
56688;PMS5003;42565;53.342;-1.534;2024-02-21T05:53:22;0;0;
56688;PMS5003;42565;53.342;-1.534;2024-02-21T05:55:48;0;0;
56688;PMS5003;42565;53.342;-1.534;2024-02-21T05:58:15;0;0;
56688;PMS5003;42565;53.342;-1.534;2024-02-21T06:00:42;0;0;
56688;PMS5003;42565;53.342;-1.534;2024-02-21T06:03:08;0;0;
56688;PMS5003;42565;53.342;-1.534;2024-02-21T06:05:36;1;1;
56688;PMS5003;42565;53.342;-1.534;2024-02-21T06:08:04;0;0;
56688;PMS5003;42565;53.342;-1.534;2024-02-21T06:10:32;1;1;
56688;PMS5003;42565;53.342;-1.534;2024-02-21T06:13:00;0;0;
56688;PMS5003;42565;53.342;-1.534;2024-02-21T06:15:26;1;1;
56688;PMS5003;42565;53.342;-1.534;2024-02-21T06:17:54;1;1;
56688;PMS5003;42565;53.342;-1.534;2024-02-21T06:20:21;1;1;
56688;PMS5003;42565;53.342;-1.534;2024-02-21T06:22:47;1;1;
56688;PMS5003;42565;53.342;-1.534;2024-02-21T06:25:14;2;2;
56688;PMS5003;42565;53.342;-1.534;2024-02-21T06:27:42;2;1;
56688;PMS5003;42565;53.342;-1.534;2024-02-21T06:30:10;1;1;
56688;PMS5003;42565;53.342;-1.534;2024-02-21T06:32:38;1;1;
56688;PMS5003;42565;53.342;-1.534;2024-02-21T06:35:05;1;1;
56688;PMS5003;42565;53.342;-1.534;2024-02-21T06:37:32;1;1;
56688;PMS5003;42565;53.342;-1.534;2024-02-21T06:39:59;2;2;
56688;PMS5003;42565;53.342;-1.534;2024-02-21T06:42:26;2;2;
56688;PMS5003;42565;53.342;-1.534;2024-02-21T06:44:53;2;2;
56688;PMS5003;42565;53.342;-1.534;2024-02-21T06:47:20;1;1;
56688;PMS5003;42565;53.342;-1.534;2024-02-21T06:49:48;2;2;
56688;PMS5003;42565;53.342;-1.534;2024-02-21T06:52:17;2;1;
56688;PMS5003;42565;53.342;-1.534;2024-02-21T06:54:44;3;3;
56688;PMS5003;42565;53.342;-1.534;2024-02-21T06:57:11;2;2;
56688;PMS5003;42565;53.342;-1.534;2024-02-21T06:59:38;2;2;
56688;PMS5003;42565;53.342;-1.534;2024-02-21T07:02:06;2;2;
56688;PMS5003;42565;53.342;-1.534;2024-02-21T07:04:34;2;2;
56688;PMS5003;42565;53.342;-1.534;2024-02-21T07:07:01;2;2;
56688;PMS5003;42565;53.342;-1.534;2024-02-21T07:09:29;2;2;
56688;PMS5003;42565;53.342;-1.534;2024-02-21T07:11:56;2;2;
56688;PMS5003;42565;53.342;-1.534;2024-02-21T07:14:24;2;2;
56688;PMS5003;42565;53.342;-1.534;2024-02-21T07:16:52;3;3;
56688;PMS5003;42565;53.342;-1.534;2024-02-21T07:19:18;2;2;
56688;PMS5003;42565;53.342;-1.534;2024-02-21T07:21:45;2;2;
56688;PMS5003;42565;53.342;-1.534;2024-02-21T07:24:13;2;2;
56688;PMS5003;42565;53.342;-1.534;2024-02-21T07:26:40;2;2;
56688;PMS5003;42565;53.342;-1.534;2024-02-21T07:29:08;2;2;
56688;PMS5003;42565;53.342;-1.534;2024-02-21T07:31:38;2;2;
56688;PMS5003;42565;53.342;-1.534;2024-02-21T07:34:07;3;3;
56688;PMS5003;42565;53.342;-1.534;2024-02-21T07:36:33;3;3;
56688;PMS5003;42565;53.342;-1.534;2024-02-21T07:39:01;3;3;
56688;PMS5003;42565;53.342;-1.534;2024-02-21T07:41:28;3;2;
56688;PMS5003;42565;53.342;-1.534;2024-02-21T07:43:54;4;2;
56688;PMS5003;42565;53.342;-1.534;2024-02-21T07:46:22;4;3;
56688;PMS5003;42565;53.342;-1.534;2024-02-21T07:48:50;4;3;
56688;PMS5003;42565;53.342;-1.534;2024-02-21T07:51:17;1;1;
56688;PMS5003;42565;53.342;-1.534;2024-02-21T07:53:44;3;2;
56688;PMS5003;42565;53.342;-1.534;2024-02-21T07:56:11;3;3;
56688;PMS5003;42565;53.342;-1.534;2024-02-21T07:58:38;1;1;
56688;PMS5003;42565;53.342;-1.534;2024-02-21T08:01:06;3;3;
56688;PMS5003;42565;53.342;-1.534;2024-02-21T08:03:33;3;3;
56688;PMS5003;42565;53.342;-1.534;2024-02-21T08:06:00;2;2;
56688;PMS5003;42565;53.342;-1.534;2024-02-21T08:08:28;2;2;
56688;PMS5003;42565;53.342;-1.534;2024-02-21T08:10:54;1;1;
56688;PMS5003;42565;53.342;-1.534;2024-02-21T08:13:21;2;2;
56688;PMS5003;42565;53.342;-1.534;2024-02-21T08:15:49;2;2;
56688;PMS5003;42565;53.342;-1.534;2024-02-21T08:18:15;4;3;
56688;PMS5003;42565;53.342;-1.534;2024-02-21T08:20:42;2;2;
56688;PMS5003;42565;53.342;-1.534;2024-02-21T08:23:09;1;1;
56688;PMS5003;42565;53.342;-1.534;2024-02-21T08:25:36;1;1;
56688;PMS5003;42565;53.342;-1.534;2024-02-21T08:28:02;1;1;
56688;PMS5003;42565;53.342;-1.534;2024-02-21T08:30:31;2;2;
56688;PMS5003;42565;53.342;-1.534;2024-02-21T08:32:58;2;1;
56688;PMS5003;42565;53.342;-1.534;2024-02-21T08:35:25;2;1;
56688;PMS5003;42565;53.342;-1.534;2024-02-21T08:37:52;1;1;
56688;PMS5003;42565;53.342;-1.534;2024-02-21T08:40:18;1;1;
56688;PMS5003;42565;53.342;-1.534;2024-02-21T08:42:45;1;1;
56688;PMS5003;42565;53.342;-1.534;2024-02-21T08:45:12;1;1;
56688;PMS5003;42565;53.342;-1.534;2024-02-21T08:47:39;1;1;
56688;PMS5003;42565;53.342;-1.534;2024-02-21T08:50:07;0;0;
56688;PMS5003;42565;53.342;-1.534;2024-02-21T08:52:35;1;1;
56688;PMS5003;42565;53.342;-1.534;2024-02-21T08:55:02;1;1;
56688;PMS5003;42565;53.342;-1.534;2024-02-21T08:57:30;2;1;
56688;PMS5003;42565;53.342;-1.534;2024-02-21T08:59:57;1;1;
56688;PMS5003;42565;53.342;-1.534;2024-02-21T09:02:24;1;1;
56688;PMS5003;42565;53.342;-1.534;2024-02-21T09:04:51;1;1;
56688;PMS5003;42565;53.342;-1.534;2024-02-21T09:07:17;1;1;
56688;PMS5003;42565;53.342;-1.534;2024-02-21T09:09:44;1;1;
56688;PMS5003;42565;53.342;-1.534;2024-02-21T09:12:11;1;1;
56688;PMS5003;42565;53.342;-1.534;2024-02-21T09:14:38;1;1;
56688;PMS5003;42565;53.342;-1.534;2024-02-21T09:17:04;0;0;
56688;PMS5003;42565;53.342;-1.534;2024-02-21T09:19:31;0;0;
56688;PMS5003;42565;53.342;-1.534;2024-02-21T09:22:00;0;0;
56688;PMS5003;42565;53.342;-1.534;2024-02-21T09:24:26;0;0;
56688;PMS5003;42565;53.342;-1.534;2024-02-21T09:26:53;0;0;
56688;PMS5003;42565;53.342;-1.534;2024-02-21T09:29:20;1;0;
56688;PMS5003;42565;53.342;-1.534;2024-02-21T09:31:46;0;0;
56688;PMS5003;42565;53.342;-1.534;2024-02-21T09:34:13;0;0;
56688;PMS5003;42565;53.342;-1.534;2024-02-21T09:36:40;0;0;
56688;PMS5003;42565;53.342;-1.534;2024-02-21T09:39:07;0;0;
56688;PMS5003;42565;53.342;-1.534;2024-02-21T09:41:33;0;0;
56688;PMS5003;42565;53.342;-1.534;2024-02-21T09:44:05;1;1;
56688;PMS5003;42565;53.342;-1.534;2024-02-21T09:46:36;0;0;
56688;PMS5003;42565;53.342;-1.534;2024-02-21T09:49:18;0;0;
56688;PMS5003;42565;53.342;-1.534;2024-02-21T09:51:54;0;0;
56688;PMS5003;42565;53.342;-1.534;2024-02-21T09:54:24;1;0;
56688;PMS5003;42565;53.342;-1.534;2024-02-21T09:56:52;0;0;
56688;PMS5003;42565;53.342;-1.534;2024-02-21T09:59:20;0;0;
56688;PMS5003;42565;53.342;-1.534;2024-02-21T10:01:48;1;0;
56688;PMS5003;42565;53.342;-1.534;2024-02-21T10:04:15;0;0;
56688;PMS5003;42565;53.342;-1.534;2024-02-21T10:06:42;1;1;
56688;PMS5003;42565;53.342;-1.534;2024-02-21T10:09:19;1;0;
56688;PMS5003;42565;53.342;-1.534;2024-02-21T10:11:46;0;0;
56688;PMS5003;42565;53.342;-1.534;2024-02-21T10:14:13;0;0;
56688;PMS5003;42565;53.342;-1.534;2024-02-21T10:16:41;0;0;
56688;PMS5003;42565;53.342;-1.534;2024-02-21T10:19:15;0;0;
56688;PMS5003;42565;53.342;-1.534;2024-02-21T10:21:43;0;0;
56688;PMS5003;42565;53.342;-1.534;2024-02-21T10:24:10;1;1;
56688;PMS5003;42565;53.342;-1.534;2024-02-21T10:26:38;0;0;
56688;PMS5003;42565;53.342;-1.534;2024-02-21T10:29:04;0;0;
56688;PMS5003;42565;53.342;-1.534;2024-02-21T10:31:31;0;0;
56688;PMS5003;42565;53.342;-1.534;2024-02-21T10:33:59;0;0;
56688;PMS5003;42565;53.342;-1.534;2024-02-21T10:36:27;0;0;
56688;PMS5003;42565;53.342;-1.534;2024-02-21T10:38:55;0;0;
56688;PMS5003;42565;53.342;-1.534;2024-02-21T10:41:23;0;0;
56688;PMS5003;42565;53.342;-1.534;2024-02-21T10:43:51;0;0;
56688;PMS5003;42565;53.342;-1.534;2024-02-21T10:46:20;0;0;
56688;PMS5003;42565;53.342;-1.534;2024-02-21T10:48:48;0;0;
56688;PMS5003;42565;53.342;-1.534;2024-02-21T10:51:25;1;1;
56688;PMS5003;42565;53.342;-1.534;2024-02-21T10:53:57;0;0;
56688;PMS5003;42565;53.342;-1.534;2024-02-21T10:56:36;0;0;
56688;PMS5003;42565;53.342;-1.534;2024-02-21T10:59:05;0;0;
56688;PMS5003;42565;53.342;-1.534;2024-02-21T11:01:33;0;0;
56688;PMS5003;42565;53.342;-1.534;2024-02-21T11:04:01;1;1;
56688;PMS5003;42565;53.342;-1.534;2024-02-21T11:06:30;2;2;
56688;PMS5003;42565;53.342;-1.534;2024-02-21T11:09:00;3;3;
56688;PMS5003;42565;53.342;-1.534;2024-02-21T11:11:29;0;0;
56688;PMS5003;42565;53.342;-1.534;2024-02-21T11:14:03;2;2;
56688;PMS5003;42565;53.342;-1.534;2024-02-21T11:16:35;2;2;
56688;PMS5003;42565;53.342;-1.534;2024-02-21T11:19:04;3;2;
56688;PMS5003;42565;53.342;-1.534;2024-02-21T11:21:52;3;3;
56688;PMS5003;42565;53.342;-1.534;2024-02-21T11:24:43;2;2;
56688;PMS5003;42565;53.342;-1.534;2024-02-21T11:27:11;1;1;
56688;PMS5003;42565;53.342;-1.534;2024-02-21T11:29:39;1;1;
56688;PMS5003;42565;53.342;-1.534;2024-02-21T11:32:09;2;2;
56688;PMS5003;42565;53.342;-1.534;2024-02-21T11:34:36;2;2;
56688;PMS5003;42565;53.342;-1.534;2024-02-21T11:37:04;1;1;
56688;PMS5003;42565;53.342;-1.534;2024-02-21T11:39:40;1;1;
56688;PMS5003;42565;53.342;-1.534;2024-02-21T11:42:08;1;0;
56688;PMS5003;42565;53.342;-1.534;2024-02-21T11:44:36;1;0;
56688;PMS5003;42565;53.342;-1.534;2024-02-21T11:47:04;1;1;
56688;PMS5003;42565;53.342;-1.534;2024-02-21T11:49:37;1;1;
56688;PMS5003;42565;53.342;-1.534;2024-02-21T11:52:06;0;0;
56688;PMS5003;42565;53.342;-1.534;2024-02-21T11:54:33;0;0;
56688;PMS5003;42565;53.342;-1.534;2024-02-21T11:57:01;1;1;
56688;PMS5003;42565;53.342;-1.534;2024-02-21T11:59:29;0;0;
56688;PMS5003;42565;53.342;-1.534;2024-02-21T12:01:58;0;0;
56688;PMS5003;42565;53.342;-1.534;2024-02-21T12:04:26;1;1;
56688;PMS5003;42565;53.342;-1.534;2024-02-21T12:06:53;0;0;
56688;PMS5003;42565;53.342;-1.534;2024-02-21T12:09:22;1;0;
56688;PMS5003;42565;53.342;-1.534;2024-02-21T12:11:56;0;0;
56688;PMS5003;42565;53.342;-1.534;2024-02-21T12:14:25;1;1;
56688;PMS5003;42565;53.342;-1.534;2024-02-21T12:16:52;1;1;
56688;PMS5003;42565;53.342;-1.534;2024-02-21T12:19:20;1;1;
56688;PMS5003;42565;53.342;-1.534;2024-02-21T12:21:48;1;1;
56688;PMS5003;42565;53.342;-1.534;2024-02-21T12:24:17;1;1;
56688;PMS5003;42565;53.342;-1.534;2024-02-21T12:26:47;1;1;
56688;PMS5003;42565;53.342;-1.534;2024-02-21T12:29:14;1;1;
56688;PMS5003;42565;53.342;-1.534;2024-02-21T12:31:41;1;1;
56688;PMS5003;42565;53.342;-1.534;2024-02-21T12:34:09;0;0;
56688;PMS5003;42565;53.342;-1.534;2024-02-21T12:36:36;0;0;
56688;PMS5003;42565;53.342;-1.534;2024-02-21T12:39:07;1;0;
56688;PMS5003;42565;53.342;-1.534;2024-02-21T12:41:34;0;0;
56688;PMS5003;42565;53.342;-1.534;2024-02-21T12:44:02;1;1;
56688;PMS5003;42565;53.342;-1.534;2024-02-21T12:46:29;1;1;
56688;PMS5003;42565;53.342;-1.534;2024-02-21T12:48:56;1;1;
56688;PMS5003;42565;53.342;-1.534;2024-02-21T12:51:22;2;1;
56688;PMS5003;42565;53.342;-1.534;2024-02-21T12:53:49;0;0;
56688;PMS5003;42565;53.342;-1.534;2024-02-21T12:56:17;0;0;
56688;PMS5003;42565;53.342;-1.534;2024-02-21T12:58:44;1;1;
56688;PMS5003;42565;53.342;-1.534;2024-02-21T13:01:12;1;1;
56688;PMS5003;42565;53.342;-1.534;2024-02-21T13:03:39;1;1;
56688;PMS5003;42565;53.342;-1.534;2024-02-21T13:06:06;0;0;
56688;PMS5003;42565;53.342;-1.534;2024-02-21T13:08:34;1;1;
56688;PMS5003;42565;53.342;-1.534;2024-02-21T13:11:00;1;1;
56688;PMS5003;42565;53.342;-1.534;2024-02-21T13:13:28;2;1;
56688;PMS5003;42565;53.342;-1.534;2024-02-21T13:15:55;1;1;
56688;PMS5003;42565;53.342;-1.534;2024-02-21T13:18:22;1;1;
56688;PMS5003;42565;53.342;-1.534;2024-02-21T13:20:49;0;0;
56688;PMS5003;42565;53.342;-1.534;2024-02-21T13:23:16;0;0;
56688;PMS5003;42565;53.342;-1.534;2024-02-21T13:25:43;0;0;
56688;PMS5003;42565;53.342;-1.534;2024-02-21T13:28:11;1;1;
56688;PMS5003;42565;53.342;-1.534;2024-02-21T13:30:38;0;0;
56688;PMS5003;42565;53.342;-1.534;2024-02-21T13:33:05;0;0;
56688;PMS5003;42565;53.342;-1.534;2024-02-21T13:35:33;0;0;
56688;PMS5003;42565;53.342;-1.534;2024-02-21T13:38:00;0;0;
56688;PMS5003;42565;53.342;-1.534;2024-02-21T13:40:27;0;0;
56688;PMS5003;42565;53.342;-1.534;2024-02-21T13:42:54;0;0;
56688;PMS5003;42565;53.342;-1.534;2024-02-21T13:45:22;0;0;
56688;PMS5003;42565;53.342;-1.534;2024-02-21T13:47:49;0;0;
56688;PMS5003;42565;53.342;-1.534;2024-02-21T13:50:16;0;0;
56688;PMS5003;42565;53.342;-1.534;2024-02-21T13:52:44;0;0;
56688;PMS5003;42565;53.342;-1.534;2024-02-21T13:55:11;0;0;
56688;PMS5003;42565;53.342;-1.534;2024-02-21T13:57:38;0;0;
56688;PMS5003;42565;53.342;-1.534;2024-02-21T14:00:06;0;0;
56688;PMS5003;42565;53.342;-1.534;2024-02-21T14:02:33;0;0;
56688;PMS5003;42565;53.342;-1.534;2024-02-21T14:05:00;0;0;
56688;PMS5003;42565;53.342;-1.534;2024-02-21T14:07:28;0;0;
56688;PMS5003;42565;53.342;-1.534;2024-02-21T14:09:55;0;0;
56688;PMS5003;42565;53.342;-1.534;2024-02-21T14:12:21;0;0;
56688;PMS5003;42565;53.342;-1.534;2024-02-21T14:14:48;0;0;
56688;PMS5003;42565;53.342;-1.534;2024-02-21T14:17:15;0;0;
56688;PMS5003;42565;53.342;-1.534;2024-02-21T14:19:42;0;0;
56688;PMS5003;42565;53.342;-1.534;2024-02-21T14:22:10;0;0;
56688;PMS5003;42565;53.342;-1.534;2024-02-21T14:24:36;0;0;
56688;PMS5003;42565;53.342;-1.534;2024-02-21T14:27:04;0;0;
56688;PMS5003;42565;53.342;-1.534;2024-02-21T14:29:32;0;0;
56688;PMS5003;42565;53.342;-1.534;2024-02-21T14:31:59;0;0;
56688;PMS5003;42565;53.342;-1.534;2024-02-21T14:34:26;0;0;
56688;PMS5003;42565;53.342;-1.534;2024-02-21T14:36:53;0;0;
56688;PMS5003;42565;53.342;-1.534;2024-02-21T14:39:21;0;0;
56688;PMS5003;42565;53.342;-1.534;2024-02-21T14:41:48;1;0;
56688;PMS5003;42565;53.342;-1.534;2024-02-21T14:44:15;0;0;
56688;PMS5003;42565;53.342;-1.534;2024-02-21T14:46:42;1;0;
56688;PMS5003;42565;53.342;-1.534;2024-02-21T14:49:10;0;0;
56688;PMS5003;42565;53.342;-1.534;2024-02-21T14:51:37;0;0;
56688;PMS5003;42565;53.342;-1.534;2024-02-21T14:54:03;0;0;
56688;PMS5003;42565;53.342;-1.534;2024-02-21T14:56:31;1;1;
56688;PMS5003;42565;53.342;-1.534;2024-02-21T14:58:58;0;0;
56688;PMS5003;42565;53.342;-1.534;2024-02-21T15:01:26;0;0;
56688;PMS5003;42565;53.342;-1.534;2024-02-21T15:03:53;0;0;
56688;PMS5003;42565;53.342;-1.534;2024-02-21T15:06:21;1;0;
56688;PMS5003;42565;53.342;-1.534;2024-02-21T15:08:48;2;2;
56688;PMS5003;42565;53.342;-1.534;2024-02-21T15:11:15;0;0;
56688;PMS5003;42565;53.342;-1.534;2024-02-21T15:13:43;0;0;
56688;PMS5003;42565;53.342;-1.534;2024-02-21T15:16:09;1;1;
56688;PMS5003;42565;53.342;-1.534;2024-02-21T15:18:36;0;0;
56688;PMS5003;42565;53.342;-1.534;2024-02-21T15:21:03;1;1;
56688;PMS5003;42565;53.342;-1.534;2024-02-21T15:23:31;1;1;
56688;PMS5003;42565;53.342;-1.534;2024-02-21T15:25:58;0;0;
56688;PMS5003;42565;53.342;-1.534;2024-02-21T15:28:24;1;1;
56688;PMS5003;42565;53.342;-1.534;2024-02-21T15:30:51;0;0;
56688;PMS5003;42565;53.342;-1.534;2024-02-21T15:33:19;2;2;
56688;PMS5003;42565;53.342;-1.534;2024-02-21T15:35:45;2;2;
56688;PMS5003;42565;53.342;-1.534;2024-02-21T15:38:13;2;2;
56688;PMS5003;42565;53.342;-1.534;2024-02-21T15:40:41;1;1;
56688;PMS5003;42565;53.342;-1.534;2024-02-21T15:43:08;1;1;
56688;PMS5003;42565;53.342;-1.534;2024-02-21T15:45:36;1;1;
56688;PMS5003;42565;53.342;-1.534;2024-02-21T15:48:03;1;1;
56688;PMS5003;42565;53.342;-1.534;2024-02-21T15:50:31;1;1;
56688;PMS5003;42565;53.342;-1.534;2024-02-21T15:52:58;2;2;
56688;PMS5003;42565;53.342;-1.534;2024-02-21T15:55:26;3;2;
56688;PMS5003;42565;53.342;-1.534;2024-02-21T15:57:52;2;2;
56688;PMS5003;42565;53.342;-1.534;2024-02-21T16:00:19;4;3;
56688;PMS5003;42565;53.342;-1.534;2024-02-21T16:02:47;3;3;
56688;PMS5003;42565;53.342;-1.534;2024-02-21T16:05:47;3;3;
56688;PMS5003;42565;53.342;-1.534;2024-02-21T16:08:14;3;3;
56688;PMS5003;42565;53.342;-1.534;2024-02-21T16:10:42;4;4;
56688;PMS5003;42565;53.342;-1.534;2024-02-21T16:13:10;5;5;
56688;PMS5003;42565;53.342;-1.534;2024-02-21T16:15:37;5;5;
56688;PMS5003;42565;53.342;-1.534;2024-02-21T16:18:05;3;3;
56688;PMS5003;42565;53.342;-1.534;2024-02-21T16:20:32;4;4;
56688;PMS5003;42565;53.342;-1.534;2024-02-21T16:23:00;3;3;
56688;PMS5003;42565;53.342;-1.534;2024-02-21T16:25:26;2;2;
56688;PMS5003;42565;53.342;-1.534;2024-02-21T16:27:53;3;3;
56688;PMS5003;42565;53.342;-1.534;2024-02-21T16:30:20;3;3;
56688;PMS5003;42565;53.342;-1.534;2024-02-21T16:32:47;4;3;